Time;durP1;ratioP1;P1;durP2;ratioP2;P2;SDS_P1;SDS_P2;PMS_P1;PMS_P2;Temp;Humidity;BMP_temperature;BMP_pressure;BME280_temperature;BME280_humidity;BME280_pressure;Samples;Min_cycle;Max_cycle;Signal;HPM_P1;HPM_P2
2023/02/12 00:01:13;;;;;;;22.50;14.70;;;3.80;99.90;;;;;;6153049;23;20503;-80
2023/02/12 00:03:41;;;;;;;30.93;15.60;;;4.20;99.90;;;;;;6152543;23;20432;-81
2023/02/12 00:06:10;;;;;;;26.90;15.23;;;4.10;99.90;;;;;;6150205;23;20424;-79
2023/02/12 00:08:37;;;;;;;24.70;16.07;;;4.10;99.90;;;;;;6150610;23;20741;-77
2023/02/12 00:11:08;;;;;;;28.30;16.23;;;4.10;99.90;;;;;;6150558;23;20404;-81
2023/02/12 00:13:35;;;;;;;29.57;16.73;;;4.10;99.90;;;;;;6150781;23;20417;-82
2023/02/12 00:16:05;;;;;;;23.77;15.60;;;4.10;99.90;;;;;;6150311;23;20451;-84
2023/02/12 00:18:32;;;;;;;25.70;16.47;;;4.00;99.90;;;;;;6150143;23;20911;-81
2023/02/12 00:21:00;;;;;;;29.90;17.30;;;4.00;99.90;;;;;;6149970;23;20404;-80
2023/02/12 00:23:28;;;;;;;26.17;17.07;;;4.00;99.90;;;;;;6149817;23;20396;-80
2023/02/12 00:25:55;;;;;;;31.73;17.30;;;4.00;99.90;;;;;;6149884;23;20433;-82
2023/02/12 00:28:22;;;;;;;29.50;16.83;;;4.00;99.90;;;;;;6149952;23;20906;-77
2023/02/12 00:30:49;;;;;;;31.53;17.27;;;3.90;99.90;;;;;;6149544;23;20921;-77
2023/02/12 00:33:16;;;;;;;28.33;19.00;;;3.90;99.90;;;;;;6149916;23;20438;-80
2023/02/12 00:35:43;;;;;;;27.50;17.40;;;3.90;99.90;;;;;;6149846;23;20991;-77
2023/02/12 00:38:09;;;;;;;28.43;18.10;;;3.90;99.90;;;;;;6149802;23;20413;-78
2023/02/12 00:40:37;;;;;;;24.57;17.10;;;3.90;99.90;;;;;;6149630;23;20677;-79
2023/02/12 00:43:04;;;;;;;28.77;18.40;;;4.00;99.90;;;;;;6150067;23;20419;-76
2023/02/12 00:45:31;;;;;;;33.33;18.73;;;3.90;99.90;;;;;;6150003;23;20413;-77
2023/02/12 00:47:58;;;;;;;29.63;16.20;;;3.90;99.90;;;;;;6149856;23;20507;-78
2023/02/12 00:50:25;;;;;;;26.30;17.10;;;4.00;99.90;;;;;;6149807;23;20408;-77
2023/02/12 00:52:51;;;;;;;25.03;16.40;;;4.00;99.90;;;;;;6149254;23;20433;-77
2023/02/12 00:55:18;;;;;;;30.40;18.43;;;3.90;99.90;;;;;;6149481;23;20409;-79
2023/02/12 00:57:47;;;;;;;31.33;19.20;;;3.90;99.90;;;;;;6150101;23;20415;-77
2023/02/12 01:00:15;;;;;;;26.33;19.93;;;3.90;99.90;;;;;;6149790;23;20408;-77
2023/02/12 01:02:42;;;;;;;28.97;17.07;;;3.80;99.90;;;;;;6149728;23;20417;-77
2023/02/12 01:05:09;;;;;;;33.43;17.90;;;3.80;99.90;;;;;;6149869;23;20401;-83
2023/02/12 01:07:37;;;;;;;28.40;17.10;;;3.80;99.90;;;;;;6149431;23;20413;-85
2023/02/12 01:10:05;;;;;;;30.67;18.50;;;3.90;99.90;;;;;;6149085;23;20902;-87
2023/02/12 01:12:32;;;;;;;26.20;17.57;;;3.90;99.90;;;;;;6150072;23;20405;-81
2023/02/12 01:15:00;;;;;;;34.70;20.03;;;3.80;99.90;;;;;;6150334;23;20412;-83
2023/02/12 01:17:27;;;;;;;32.67;18.80;;;3.80;99.90;;;;;;6149688;23;20445;-83
2023/02/12 01:19:58;;;;;;;31.83;17.93;;;3.80;99.90;;;;;;6150458;23;20725;-83
2023/02/12 01:22:25;;;;;;;32.57;19.60;;;3.80;99.90;;;;;;6153043;23;20397;-81
2023/02/12 01:24:52;;;;;;;29.93;18.60;;;3.90;99.90;;;;;;6150163;23;20416;-81
2023/02/12 01:27:18;;;;;;;27.50;19.03;;;3.90;99.90;;;;;;6150040;23;20775;-83
2023/02/12 01:29:45;;;;;;;28.63;18.40;;;3.80;99.90;;;;;;6151502;23;20922;-83
2023/02/12 01:32:13;;;;;;;33.03;17.90;;;3.90;99.90;;;;;;6155231;23;20432;-84
2023/02/12 01:34:40;;;;;;;34.53;21.30;;;3.80;99.90;;;;;;6152630;23;20408;-85
2023/02/12 01:37:07;;;;;;;33.60;19.20;;;3.90;99.90;;;;;;6152707;23;20964;-86
2023/02/12 01:39:34;;;;;;;31.33;18.57;;;3.80;99.90;;;;;;6152015;23;20508;-85
2023/02/12 01:42:01;;;;;;;29.80;18.17;;;3.80;99.90;;;;;;6151588;23;20891;-82
2023/02/12 01:44:30;;;;;;;34.20;17.83;;;3.80;99.90;;;;;;6152377;23;20412;-82
2023/02/12 01:46:58;;;;;;;31.90;18.80;;;3.80;99.90;;;;;;6153576;23;20408;-88
2023/02/12 01:49:33;;;;;;;33.07;19.40;;;3.80;99.90;;;;;;6152705;23;20420;-87
2023/02/12 01:52:06;;;;;;;28.57;17.63;;;3.80;99.90;;;;;;6153406;23;20456;-90
2023/02/12 01:54:34;;;;;;;31.30;19.00;;;3.80;99.90;;;;;;6153106;23;20416;-88
2023/02/12 01:57:03;;;;;;;25.63;16.40;;;3.70;99.90;;;;;;6153349;23;20444;-87
2023/02/12 01:59:31;;;;;;;30.57;18.93;;;3.70;99.90;;;;;;6152768;23;20764;-86
2023/02/12 02:01:58;;;;;;;27.17;19.43;;;3.70;99.90;;;;;;6153283;23;20413;-87
2023/02/12 02:04:30;;;;;;;29.50;17.37;;;3.70;99.90;;;;;;6152218;23;20416;-82
2023/02/12 02:06:59;;;;;;;27.90;18.10;;;3.70;99.90;;;;;;6152642;23;20388;-83
2023/02/12 02:09:27;;;;;;;32.17;18.47;;;3.70;99.90;;;;;;6152615;23;20727;-85
2023/02/12 02:14:39;;;;;;;38.13;20.50;;;3.60;99.90;;;;;;6151318;23;20379;-84
2023/02/12 02:17:34;;;;;;;28.00;18.40;;;3.60;99.90;;;;;;6151159;23;20993;-81
2023/02/12 02:20:35;;;;;;;31.70;19.13;;;3.70;99.90;;;;;;6151898;23;20439;-82
2023/02/12 02:23:29;;;;;;;29.30;16.63;;;3.70;99.90;;;;;;6151205;23;21039;-83
2023/02/12 02:26:41;;;;;;;30.60;18.23;;;3.60;99.90;;;;;;6151385;23;20962;-81
2023/02/12 02:29:28;;;;;;;27.10;16.40;;;3.60;99.90;;;;;;6122133;23;20420;-88
2023/02/12 02:32:02;;;;;;;32.90;18.73;;;3.60;99.90;;;;;;6151717;23;20381;-86
2023/02/12 02:34:38;;;;;;;24.80;17.60;;;3.60;99.90;;;;;;6152175;23;20463;-83
2023/02/12 02:37:14;;;;;;;30.13;18.10;;;3.50;99.90;;;;;;6151743;23;20436;-83
2023/02/12 02:39:48;;;;;;;31.60;17.73;;;3.50;99.90;;;;;;6151701;23;20415;-85
2023/02/12 02:42:19;;;;;;;24.83;16.07;;;3.50;99.90;;;;;;6151394;23;20389;-84
2023/02/12 02:44:52;;;;;;;29.70;16.27;;;3.70;99.90;;;;;;6151914;23;20427;-84
2023/02/12 02:47:24;;;;;;;26.17;17.10;;;3.80;99.90;;;;;;6151279;23;20390;-85
2023/02/12 02:49:56;;;;;;;28.70;16.77;;;3.60;99.90;;;;;;6152067;23;20729;-88
2023/02/12 02:52:31;;;;;;;30.70;16.53;;;3.50;99.90;;;;;;6151846;23;20444;-87
2023/02/12 02:55:03;;;;;;;28.47;16.93;;;3.60;99.90;;;;;;6151764;23;20404;-88
2023/02/12 02:57:36;;;;;;;23.23;14.33;;;3.50;99.90;;;;;;6152290;23;20429;-82
2023/02/12 03:00:08;;;;;;;23.20;15.77;;;3.60;99.90;;;;;;6152129;23;20401;-81
2023/02/12 03:02:40;;;;;;;28.40;16.03;;;3.80;99.90;;;;;;6152205;23;20382;-87
2023/02/12 03:05:09;;;;;;;24.00;15.73;;;3.70;99.90;;;;;;6152314;23;20400;-90
2023/02/12 03:07:41;;;;;;;29.47;15.47;;;3.50;99.90;;;;;;6152181;23;20408;-84
2023/02/12 03:10:14;;;;;;;26.70;15.60;;;3.40;99.90;;;;;;6151680;23;20412;-87
2023/02/12 03:12:46;;;;;;;27.80;17.27;;;3.30;99.90;;;;;;6152937;23;20407;-88
2023/02/12 03:15:18;;;;;;;28.23;16.87;;;3.40;99.90;;;;;;6152276;23;20403;-86
2023/02/12 03:17:48;;;;;;;23.53;14.47;;;3.40;99.90;;;;;;6152468;23;20447;-85
2023/02/12 03:20:19;;;;;;;22.27;15.60;;;3.40;99.90;;;;;;6151549;23;20381;-84
2023/02/12 03:22:51;;;;;;;22.80;14.67;;;3.30;99.90;;;;;;6151445;23;20397;-90
2023/02/12 03:25:22;;;;;;;23.27;14.27;;;3.40;99.90;;;;;;6151486;23;20440;-89
2023/02/12 03:27:56;;;;;;;27.77;16.20;;;3.30;99.90;;;;;;6151408;23;20488;-82
2023/02/12 03:30:25;;;;;;;23.73;14.60;;;3.20;99.90;;;;;;6151147;23;20381;-83
2023/02/12 03:33:04;;;;;;;26.53;15.90;;;3.20;99.90;;;;;;6151624;23;20405;-82
2023/02/12 03:35:33;;;;;;;24.60;15.70;;;3.20;99.90;;;;;;6150635;23;20914;-82
2023/02/12 03:38:06;;;;;;;24.90;16.00;;;3.30;99.90;;;;;;6150763;23;20444;-85
2023/02/12 03:40:37;;;;;;;30.70;18.13;;;3.20;99.90;;;;;;6150921;23;20409;-84
2023/02/12 03:43:09;;;;;;;25.47;16.70;;;3.20;99.90;;;;;;6151417;23;20471;-84
2023/02/12 03:45:44;;;;;;;26.17;16.20;;;3.20;99.90;;;;;;6151631;23;20405;-83
2023/02/12 03:48:19;;;;;;;20.37;14.87;;;3.20;99.90;;;;;;6151916;23;20392;-83
2023/02/12 03:50:52;;;;;;;24.57;15.40;;;3.20;99.90;;;;;;6151499;23;20408;-85
2023/02/12 03:53:19;;;;;;;28.27;17.57;;;3.20;99.90;;;;;;6150884;23;20433;-85
2023/02/12 03:55:51;;;;;;;25.27;15.47;;;3.30;99.90;;;;;;6151497;23;20747;-84
2023/02/12 03:58:22;;;;;;;29.60;17.40;;;3.30;99.90;;;;;;6151917;23;20436;-81
2023/02/12 04:00:50;;;;;;;29.10;15.90;;;3.20;99.90;;;;;;6152743;23;20404;-88
2023/02/12 04:03:19;;;;;;;30.20;17.67;;;3.30;99.90;;;;;;6153396;23;20491;-88
2023/02/12 04:05:45;;;;;;;32.77;16.70;;;3.20;99.90;;;;;;6152907;23;20888;-88
2023/02/12 04:08:13;;;;;;;26.20;16.30;;;3.20;99.90;;;;;;6155319;23;20405;-90
2023/02/12 04:10:52;;;;;;;29.67;16.50;;;3.20;99.90;;;;;;6157496;23;20419;-87
2023/02/12 04:13:26;;;;;;;28.40;15.87;;;3.30;99.90;;;;;;6158876;23;20388;-88
2023/02/12 04:16:15;;;;;;;32.53;18.13;;;3.30;99.90;;;;;;6156818;23;20389;-85
2023/02/12 04:18:45;;;;;;;33.00;17.23;;;3.40;99.90;;;;;;6153681;23;20871;-87
2023/02/12 04:21:16;;;;;;;32.90;17.53;;;3.40;99.90;;;;;;6153451;23;20395;-90
2023/02/12 04:23:48;;;;;;;32.30;19.10;;;3.30;99.90;;;;;;6155570;23;20415;-85
2023/02/12 04:26:22;;;;;;;35.90;19.50;;;3.40;99.90;;;;;;6156081;23;20499;-88
2023/02/12 04:29:04;;;;;;;33.63;18.50;;;3.40;99.90;;;;;;6153963;23;20705;-83
2023/02/12 04:31:34;;;;;;;32.13;19.30;;;3.40;99.90;;;;;;6152539;23;20382;-89
2023/02/12 04:34:09;;;;;;;22.80;15.73;;;3.30;99.90;;;;;;6154850;23;20409;-87
2023/02/12 04:36:41;;;;;;;39.17;17.23;;;3.40;99.90;;;;;;6154249;23;20511;-87
2023/02/12 04:39:12;;;;;;;42.30;21.73;;;3.40;99.90;;;;;;6154380;23;20384;-86
2023/02/12 04:41:39;;;;;;;38.20;18.83;;;3.40;99.90;;;;;;6154306;23;20412;-85
2023/02/12 04:44:16;;;;;;;34.23;18.93;;;3.40;99.90;;;;;;6154377;23;20417;-83
2023/02/12 04:46:43;;;;;;;33.07;19.90;;;3.40;99.90;;;;;;6150627;23;20412;-85
2023/02/12 04:49:14;;;;;;;37.73;19.60;;;3.50;99.90;;;;;;6151241;23;20417;-85
2023/02/12 04:51:41;;;;;;;30.40;19.50;;;3.50;99.90;;;;;;6151397;23;20411;-88
2023/02/12 04:54:08;;;;;;;37.53;19.73;;;3.40;99.90;;;;;;6151923;23;20680;-87
2023/02/12 04:56:35;;;;;;;30.30;17.67;;;3.40;99.90;;;;;;6151516;23;20413;-85
2023/02/12 04:59:01;;;;;;;31.37;16.23;;;3.50;99.90;;;;;;6151809;23;20399;-83
2023/02/12 05:01:28;;;;;;;29.63;15.67;;;3.60;99.90;;;;;;6151559;23;20393;-91
2023/02/12 05:03:55;;;;;;;25.40;15.60;;;3.60;99.90;;;;;;6151566;23;20397;-86
2023/02/12 05:06:23;;;;;;;27.17;16.87;;;3.60;99.90;;;;;;6154751;23;20419;-91
2023/02/12 05:08:52;;;;;;;25.77;17.80;;;3.80;99.90;;;;;;6155150;23;20417;-90
2023/02/12 05:11:18;;;;;;;28.07;14.60;;;3.70;99.90;;;;;;6155187;23;20430;-88
2023/02/12 05:13:49;;;;;;;26.07;17.10;;;3.50;99.90;;;;;;6151988;23;20669;-85
2023/02/12 05:16:16;;;;;;;23.73;15.43;;;3.70;99.90;;;;;;6152139;23;20444;-77
2023/02/12 05:18:42;;;;;;;28.67;16.87;;;3.90;99.90;;;;;;6151933;23;20451;-81
2023/02/12 05:21:09;;;;;;;29.73;16.37;;;3.70;99.90;;;;;;6151991;23;20758;-83
2023/02/12 05:23:40;;;;;;;30.00;18.20;;;3.50;99.90;;;;;;6152107;23;20411;-77
2023/02/12 05:26:10;;;;;;;28.60;18.00;;;3.40;99.90;;;;;;6152219;23;20842;-82
2023/02/12 05:28:37;;;;;;;28.50;15.47;;;3.30;99.90;;;;;;6151992;23;20394;-81
2023/02/12 05:31:05;;;;;;;30.70;16.70;;;3.40;99.90;;;;;;6151607;23;20891;-83
2023/02/12 05:33:33;;;;;;;32.17;17.27;;;4.00;99.90;;;;;;6151151;23;20424;-78
2023/02/12 05:36:04;;;;;;;29.30;16.90;;;3.40;99.90;;;;;;6152372;23;20419;-81
2023/02/12 05:38:31;;;;;;;24.07;16.10;;;3.50;99.90;;;;;;6151415;23;21029;-83
2023/02/12 05:41:03;;;;;;;31.53;17.33;;;3.40;99.90;;;;;;6152073;23;20409;-82
2023/02/12 05:43:29;;;;;;;28.17;16.33;;;3.30;99.90;;;;;;6151960;23;20393;-80
2023/02/12 05:45:59;;;;;;;32.63;18.57;;;3.30;99.90;;;;;;6152196;23;20418;-77
2023/02/12 05:48:26;;;;;;;32.83;17.10;;;3.30;99.90;;;;;;6151888;23;20567;-78
2023/02/12 05:50:52;;;;;;;34.43;16.90;;;3.30;99.90;;;;;;6151384;23;20404;-79
2023/02/12 05:53:19;;;;;;;36.50;18.10;;;3.30;99.90;;;;;;6150925;23;20467;-79
2023/02/12 05:55:48;;;;;;;29.43;17.87;;;3.30;99.90;;;;;;6151859;23;20408;-85
2023/02/12 05:58:16;;;;;;;33.83;16.47;;;3.30;99.90;;;;;;6151307;23;20445;-81
2023/02/12 06:00:43;;;;;;;31.60;18.40;;;3.20;99.90;;;;;;6150961;23;20403;-79
2023/02/12 06:03:09;;;;;;;36.97;17.77;;;3.30;99.90;;;;;;6151389;23;20418;-79
2023/02/12 06:05:36;;;;;;;36.60;18.93;;;3.20;99.90;;;;;;6151074;23;20495;-77
2023/02/12 06:08:03;;;;;;;27.43;18.20;;;3.20;99.90;;;;;;6151288;23;20417;-80
2023/02/12 06:10:30;;;;;;;39.47;18.27;;;3.20;99.90;;;;;;6150754;23;20413;-81
2023/02/12 06:12:57;;;;;;;37.03;20.20;;;3.20;99.90;;;;;;6151221;23;20405;-78
2023/02/12 06:15:25;;;;;;;33.30;19.93;;;3.20;99.90;;;;;;6149631;23;20964;-80
2023/02/12 06:17:52;;;;;;;40.73;21.80;;;3.20;99.90;;;;;;6149945;23;20440;-80
2023/02/12 06:20:19;;;;;;;46.03;21.47;;;3.30;99.90;;;;;;6152429;23;20499;-88
2023/02/12 06:22:46;;;;;;;36.07;20.47;;;3.40;99.90;;;;;;6151581;23;20423;-88
2023/02/12 06:25:12;;;;;;;41.60;24.50;;;3.30;99.90;;;;;;6151918;23;20524;-83
2023/02/12 06:27:39;;;;;;;49.27;26.17;;;3.20;99.90;;;;;;6152153;23;20428;-79
2023/02/12 06:30:07;;;;;;;45.30;25.20;;;3.00;99.90;;;;;;6151919;23;20473;-79
2023/02/12 06:32:35;;;;;;;47.40;25.60;;;3.00;99.90;;;;;;6150786;23;20402;-76
2023/02/12 06:35:04;;;;;;;47.47;26.30;;;2.90;99.90;;;;;;6151428;23;20677;-77
2023/02/12 06:37:35;;;;;;;43.20;25.17;;;2.90;99.90;;;;;;6151148;23;21163;-85
2023/02/12 06:40:02;;;;;;;48.83;27.67;;;2.40;99.90;;;;;;6151853;23;20427;-82
2023/02/12 06:42:29;;;;;;;57.23;28.47;;;2.90;99.90;;;;;;6152766;23;20417;-92
2023/02/12 06:44:56;;;;;;;61.03;29.43;;;2.90;99.90;;;;;;6155529;23;20420;-80
2023/02/12 06:47:23;;;;;;;63.80;29.10;;;2.90;99.90;;;;;;6150984;23;20401;-80
2023/02/12 06:49:51;;;;;;;54.17;30.87;;;2.90;99.90;;;;;;6150656;23;20422;-80
2023/02/12 06:52:17;;;;;;;64.20;31.07;;;2.80;99.90;;;;;;6151255;23;20428;-79
2023/02/12 06:54:44;;;;;;;64.20;32.97;;;2.80;99.90;;;;;;6153674;23;20423;-87
2023/02/12 06:57:11;;;;;;;69.10;31.57;;;2.80;99.90;;;;;;6151761;23;20420;-77
2023/02/12 06:59:38;;;;;;;65.83;32.47;;;2.80;99.90;;;;;;6151039;23;20420;-77
2023/02/12 07:02:04;;;;;;;72.93;32.63;;;2.90;99.90;;;;;;6151057;23;20415;-75
2023/02/12 07:04:31;;;;;;;81.47;34.67;;;2.80;99.90;;;;;;6151230;23;20423;-76
2023/02/12 07:06:59;;;;;;;71.37;33.13;;;2.90;99.90;;;;;;6150819;23;20910;-76
2023/02/12 07:09:26;;;;;;;65.63;32.30;;;2.70;99.90;;;;;;6150606;23;20752;-76
2023/02/12 07:11:55;;;;;;;65.50;33.33;;;2.80;99.90;;;;;;6150188;23;20413;-77
2023/02/12 07:14:21;;;;;;;73.87;35.33;;;2.90;99.90;;;;;;6150135;23;20540;-78
2023/02/12 07:16:48;;;;;;;72.97;33.57;;;2.80;99.90;;;;;;6150163;23;20417;-75
2023/02/12 07:19:16;;;;;;;69.67;32.80;;;2.80;99.90;;;;;;6149616;23;20452;-84
2023/02/12 07:21:43;;;;;;;62.50;31.73;;;2.80;99.90;;;;;;6149707;23;20749;-83
2023/02/12 07:26:45;;;;;;;61.90;30.87;;;3.00;99.90;;;;;;6180503;23;20462;-84
2023/02/12 07:29:12;;;;;;;66.17;29.37;;;3.40;99.90;;;;;;6180182;23;20531;-81
2023/02/12 07:31:41;;;;;;;64.13;31.37;;;3.30;99.90;;;;;;6179733;23;20408;-80
2023/02/12 07:34:10;;;;;;;57.33;26.93;;;3.20;99.90;;;;;;6179719;23;20408;-82
2023/02/12 07:36:37;;;;;;;66.10;30.17;;;3.50;99.90;;;;;;6179467;23;20435;-80
2023/02/12 07:39:04;;;;;;;72.20;33.50;;;3.40;99.90;;;;;;6179842;23;20478;-76
2023/02/12 07:41:33;;;;;;;66.27;31.20;;;3.30;99.90;;;;;;6179823;23;20916;-76
2023/02/12 07:44:05;;;;;;;61.63;29.43;;;3.30;99.90;;;;;;6179777;23;20898;-76
2023/02/12 07:46:34;;;;;;;58.23;30.37;;;3.50;99.90;;;;;;6180330;23;20419;-79
2023/02/12 07:49:04;;;;;;;64.37;28.20;;;3.50;99.90;;;;;;6180120;23;20419;-76
2023/02/12 07:51:32;;;;;;;52.37;26.17;;;3.60;99.90;;;;;;6180212;23;20442;-79
2023/02/12 07:54:00;;;;;;;58.00;28.73;;;3.70;99.90;;;;;;6179894;23;20973;-78
2023/02/12 07:56:31;;;;;;;58.20;28.93;;;3.70;99.90;;;;;;6180838;23;20388;-78
2023/02/12 07:58:58;;;;;;;52.17;27.77;;;3.50;99.90;;;;;;6179524;23;20852;-76
2023/02/12 08:01:28;;;;;;;58.83;28.47;;;3.60;99.90;;;;;;6180638;23;20404;-87
2023/02/12 08:03:58;;;;;;;46.33;25.37;;;3.60;99.90;;;;;;6180599;23;20403;-79
2023/02/12 08:06:27;;;;;;;53.33;25.83;;;3.80;99.90;;;;;;6184663;23;20733;-81
2023/02/12 08:08:56;;;;;;;62.30;28.70;;;3.90;99.90;;;;;;6192079;23;20416;-82
2023/02/12 08:11:23;;;;;;;45.40;24.23;;;3.90;99.90;;;;;;6193427;23;20401;-81
2023/02/12 08:13:50;;;;;;;44.50;22.43;;;3.60;99.90;;;;;;6180547;23;20432;-83
2023/02/12 08:16:19;;;;;;;51.17;24.03;;;3.50;99.90;;;;;;6182075;23;20406;-85
2023/02/12 08:18:48;;;;;;;44.00;24.67;;;3.60;99.90;;;;;;6181961;23;20444;-83
2023/02/12 08:21:16;;;;;;;49.13;27.57;;;3.60;99.90;;;;;;6184821;23;20408;-85
2023/02/12 08:23:44;;;;;;;50.63;23.70;;;3.70;99.90;;;;;;6189934;23;20992;-84
2023/02/12 08:26:12;;;;;;;50.43;25.07;;;3.70;99.90;;;;;;6193608;23;20819;-81
2023/02/12 08:28:40;;;;;;;40.57;24.10;;;3.70;99.90;;;;;;6189112;23;20898;-79
2023/02/12 08:31:10;;;;;;;43.70;23.93;;;4.00;99.90;;;;;;6182234;23;20415;-80
2023/02/12 08:33:37;;;;;;;51.40;24.03;;;4.10;99.90;;;;;;6181295;23;20408;-82
2023/02/12 08:36:08;;;;;;;45.03;25.80;;;4.10;99.90;;;;;;6180851;23;20911;-80
2023/02/12 08:38:35;;;;;;;52.43;25.80;;;4.20;99.90;;;;;;6187243;23;20439;-80
2023/02/12 08:41:03;;;;;;;53.77;27.30;;;4.20;99.90;;;;;;6184707;23;20450;-84
2023/02/12 08:43:30;;;;;;;43.97;23.23;;;4.10;99.90;;;;;;6181397;23;20411;-77
2023/02/12 08:46:02;;;;;;;44.77;25.43;;;4.40;99.90;;;;;;6179421;23;20412;-78
2023/02/12 08:48:29;;;;;;;41.17;23.53;;;4.20;99.90;;;;;;6178692;23;20474;-76
2023/02/12 08:50:55;;;;;;;43.07;22.47;;;4.60;99.90;;;;;;6178988;23;20507;-77
2023/02/12 08:53:24;;;;;;;46.97;24.27;;;4.40;99.90;;;;;;6179132;23;20438;-80
2023/02/12 08:55:51;;;;;;;39.07;21.27;;;4.30;99.90;;;;;;6180396;23;20486;-78
2023/02/12 08:58:17;;;;;;;38.77;20.83;;;4.60;99.90;;;;;;6180071;23;20440;-78
2023/02/12 09:00:44;;;;;;;36.03;21.00;;;4.80;99.90;;;;;;6180123;23;20414;-77
2023/02/12 09:03:11;;;;;;;42.17;20.47;;;4.90;99.90;;;;;;6182182;23;20400;-78
2023/02/12 09:05:39;;;;;;;37.33;20.47;;;5.10;99.90;;;;;;6180669;23;20443;-80
2023/02/12 09:08:07;;;;;;;44.63;21.87;;;5.10;99.90;;;;;;6179336;23;20467;-78
2023/02/12 09:10:38;;;;;;;36.27;19.10;;;4.80;99.90;;;;;;6178478;23;20956;-78
2023/02/12 09:13:05;;;;;;;36.43;19.80;;;5.10;99.90;;;;;;6182122;23;20395;-79
2023/02/12 09:15:32;;;;;;;32.00;18.70;;;5.40;99.90;;;;;;6179409;23;20396;-78
2023/02/12 09:18:02;;;;;;;34.67;18.47;;;5.10;99.90;;;;;;6180891;23;20411;-77
2023/02/12 09:20:29;;;;;;;37.17;20.70;;;5.30;99.90;;;;;;6182637;23;20475;-81
2023/02/12 09:22:56;;;;;;;40.83;20.30;;;5.60;99.90;;;;;;6180886;23;20431;-79
2023/02/12 09:25:23;;;;;;;41.40;19.03;;;5.60;99.90;;;;;;6184263;23;20436;-78
2023/02/12 09:30:26;;;;;;;43.90;19.90;;;5.80;99.90;;;;;;6188214;23;20448;-77
2023/02/12 09:32:53;;;;;;;30.03;17.40;;;6.00;99.90;;;;;;6181996;23;20412;-77
2023/02/12 09:35:19;;;;;;;35.80;18.80;;;6.10;99.90;;;;;;6180670;23;20423;-78
2023/02/12 09:37:46;;;;;;;29.77;18.80;;;6.20;99.90;;;;;;6179610;23;20546;-79
2023/02/12 09:40:21;;;;;;;30.53;19.03;;;6.30;99.90;;;;;;6182110;23;20404;-79
2023/02/12 09:43:02;;;;;;;31.40;17.73;;;6.30;99.90;;;;;;6181800;23;20416;-77
2023/02/12 09:45:36;;;;;;;31.40;18.90;;;6.50;99.90;;;;;;6183041;23;20479;-77
2023/02/12 09:48:15;;;;;;;34.03;17.80;;;6.40;99.90;;;;;;6179769;23;20918;-77
2023/02/12 09:50:48;;;;;;;37.60;20.83;;;6.70;99.90;;;;;;6179722;23;20388;-77
2023/02/12 09:53:18;;;;;;;33.13;19.80;;;6.90;99.90;;;;;;6180598;23;20780;-77
2023/02/12 09:55:45;;;;;;;16.87;9.23;;;7.20;99.90;;;;;;6181635;23;20412;-77
2023/02/12 09:58:16;;;;;;;11.87;6.23;;;7.30;99.90;;;;;;6181356;23;20930;-77
2023/02/12 10:00:44;;;;;;;6.77;4.13;;;7.50;99.90;;;;;;6181673;23;20392;-77
2023/02/12 10:03:14;;;;;;;8.47;5.23;;;7.70;99.90;;;;;;6180757;23;20519;-78
2023/02/12 10:05:45;;;;;;;5.17;3.87;;;7.80;99.90;;;;;;6182058;23;20386;-77
2023/02/12 10:08:38;;;;;;;4.97;3.10;;;7.80;99.90;;;;;;6181378;23;20396;-77
2023/02/12 10:11:28;;;;;;;3.73;3.40;;;7.50;99.90;;;;;;6180986;23;20396;-75
2023/02/12 10:14:03;;;;;;;4.23;3.37;;;7.70;99.90;;;;;;6181291;23;20882;-77
2023/02/12 10:16:41;;;;;;;4.83;3.00;;;7.70;99.90;;;;;;6181871;23;20766;-76
2023/02/12 10:19:23;;;;;;;3.83;2.27;;;7.40;99.90;;;;;;6182122;23;21028;-79
2023/02/12 10:21:59;;;;;;;4.47;2.40;;;7.40;99.90;;;;;;6208781;23;20413;-79
2023/02/12 10:24:46;;;;;;;5.03;4.63;;;7.70;99.90;;;;;;6206445;23;20401;-80
2023/02/12 10:29:49;;;;;;;6.30;4.30;;;8.20;99.90;;;;;;6176311;23;20437;-75
2023/02/12 10:32:25;;;;;;;5.27;4.67;;;8.20;99.90;;;;;;6173519;23;20534;-79
2023/02/12 10:34:53;;;;;;;5.73;4.57;;;8.80;99.90;;;;;;6170774;23;20472;-82
2023/02/12 10:40:01;;;;;;;3.13;2.83;;;9.90;99.90;;;;;;6161351;23;20506;-81
2023/02/12 10:45:02;;;;;;;3.07;2.40;;;11.20;99.90;;;;;;6184303;23;20520;-81
2023/02/12 10:50:14;;;;;;;2.60;2.40;;;;;;;;;;6181954;23;20455;-80
2023/02/12 10:52:44;;;;;;;3.20;2.90;;;;;;;;;;6165534;23;20460;-76
2023/02/12 10:55:24;;;;;;;4.10;3.37;;;;;;;;;;6152780;23;20401;-76
2023/02/12 10:57:51;;;;;;;6.07;4.30;;;;;;;;;;6160004;23;20389;-78
2023/02/12 11:00:24;;;;;;;6.97;3.80;;;;;;;;;;6166075;23;20448;-79
2023/02/12 11:03:00;;;;;;;3.80;3.50;;;;;;;;;;6171883;23;20401;-78
2023/02/12 11:05:30;;;;;;;5.93;3.83;;;;;;;;;;6155516;23;20389;-73
2023/02/12 11:07:57;;;;;;;4.87;4.07;;;;;;;;;;6170754;23;20419;-78
2023/02/12 11:10:27;;;;;;;5.87;4.00;;;;;;;;;;6156966;23;20515;-78
2023/02/12 11:12:54;;;;;;;4.77;4.23;;;;;;;;;;6161488;23;20390;-78
2023/02/12 11:15:23;;;;;;;8.83;5.67;;;;;;;;;;6161752;23;20448;-78
2023/02/12 11:17:56;;;;;;;6.37;4.30;;;;;;;;;;6161944;23;20401;-78
2023/02/12 11:20:24;;;;;;;5.80;5.00;;;;;;;;;;6159813;23;20413;-78
2023/02/12 11:22:54;;;;;;;7.80;6.50;;;;;;;;;;6153493;23;20409;-76
2023/02/12 11:25:21;;;;;;;8.03;5.97;;;;;;;;;;6152221;23;20405;-77
2023/02/12 11:27:59;;;;;;;6.57;5.83;;;;;;;;;;6151628;23;20796;-77
2023/02/12 11:30:27;;;;;;;5.73;4.20;;;;;;;;;;6153416;23;20440;-79
2023/02/12 11:32:54;;;;;;;6.43;4.47;;;;;;;;;;6154979;23;20429;-77
2023/02/12 11:35:27;;;;;;;3.93;3.57;;;;;;;;;;6158212;23;20389;-79
2023/02/12 11:37:57;;;;;;;3.93;2.07;;;;;;;;;;6154504;23;20405;-78
2023/02/12 11:40:25;;;;;;;4.50;2.30;;;;;;;;;;6152695;23;20386;-77
2023/02/12 11:42:54;;;;;;;2.57;2.27;;;;;;;;;;6152289;23;20415;-77
2023/02/12 11:45:23;;;;;;;2.00;1.80;;;;;;;;;;6152013;23;20479;-76
2023/02/12 11:47:51;;;;;;;1.87;1.67;;;;;;;;;;6151731;23;20409;-75
2023/02/12 11:50:22;;;;;;;1.50;1.40;;;;;;;;;;6154209;23;20535;-76
2023/02/12 11:52:51;;;;;;;2.40;1.50;;;;;;;;;;6152826;23;20723;-76
2023/02/12 11:55:23;;;;;;;2.13;1.93;;;;;;;;;;6154507;23;20397;-75
2023/02/12 11:57:51;;;;;;;2.53;2.00;;;;;;;;;;6154221;23;20424;-76
2023/02/12 12:00:20;;;;;;;6.00;3.37;;;;;;;;;;6158885;23;20456;-78
2023/02/12 12:02:49;;;;;;;3.57;2.37;;;;;;;;;;6161238;23;20393;-76
2023/02/12 12:05:18;;;;;;;3.43;2.00;;;;;;;;;;6160063;23;20417;-77
2023/02/12 12:07:47;;;;;;;1.60;1.40;;;;;;;;;;6158670;23;20476;-77
2023/02/12 12:10:18;;;;;;;2.10;1.97;;;;;;;;;;6156294;23;20723;-77
2023/02/12 12:12:49;;;;;;;4.27;3.30;;;;;;;;;;6156993;23;20386;-76
2023/02/12 12:21:13;;;;;;;3.90;1.90;;;17.60;99.90;;;;;;6155319;23;20425;-77
2023/02/12 12:23:44;;;;;;;3.57;3.27;;;15.90;99.90;;;;;;6154624;23;20386;-76
2023/02/12 12:26:16;;;;;;;5.77;3.00;;;15.40;99.90;;;;;;6157654;23;20473;-77
2023/02/12 12:28:51;;;;;;;3.40;2.80;;;14.10;99.90;;;;;;6159985;23;20385;-78
2023/02/12 12:31:23;;;;;;;5.40;3.23;;;16.00;99.90;;;;;;6162123;23;20444;-76
2023/02/12 12:33:52;;;;;;;3.70;3.23;;;17.60;99.90;;;;;;6160119;23;20484;-76
2023/02/12 12:36:46;;;;;;;4.10;3.30;;;16.70;99.90;;;;;;6159774;23;20400;-78
2023/02/12 12:39:20;;;;;;;2.87;2.40;;;15.70;99.90;;;;;;6157771;23;20468;-75
2023/02/12 12:42:08;;;;;;;3.63;2.73;;;16.60;99.90;;;;;;6151286;23;20397;-77
2023/02/12 12:44:51;;;;;;;2.70;2.50;;;18.70;99.90;;;;;;6152192;23;20456;-78
2023/02/12 12:47:25;;;;;;;4.67;3.30;;;17.30;99.90;;;;;;6151321;23;20465;-77
2023/02/12 12:50:03;;;;;;;3.50;3.20;;;17.90;99.90;;;;;;6150786;23;20450;-77
2023/02/12 12:52:46;;;;;;;4.80;3.43;;;16.10;99.90;;;;;;6152136;23;20464;-78
2023/02/12 12:55:45;;;;;;;4.53;3.63;;;15.00;99.90;;;;;;6156609;23;20440;-79
2023/02/12 12:58:20;;;;;;;4.73;4.33;;;14.70;99.90;;;;;;6154795;23;20956;-81
2023/02/12 13:01:10;;;;;;;3.43;2.90;;;16.20;99.90;;;;;;6155819;23;20555;-81
2023/02/12 13:06:26;;;;;;;5.63;3.83;;;;;;;;;;6144704;23;20978;-76
2023/02/12 13:09:03;;;;;;;117.10;101.77;;;;;;;;;;6143675;23;20799;-76
2023/02/12 13:11:39;;;;;;;7.53;6.13;;;21.80;99.90;;;;;;6145672;23;20472;-76
2023/02/12 13:14:23;;;;;;;5.50;5.00;;;22.40;99.90;;;;;;6144230;23;20397;-74
2023/02/12 13:16:59;;;;;;;5.30;3.90;;;20.50;99.90;;;;;;6144551;23;20401;-74
2023/02/12 13:19:33;;;;;;;10.53;4.97;;;;;;;;;;6151588;23;20890;-75
2023/02/12 13:22:06;;;;;;;6.07;4.63;;;;;;;;;;6143139;23;20435;-75
2023/02/12 13:24:41;;;;;;;5.90;4.90;;;16.40;99.90;;;;;;6151213;23;21065;-74
2023/02/12 13:27:14;;;;;;;4.90;4.40;;;;;;;;;;6146937;23;20889;-75
2023/02/12 13:29:45;;;;;;;5.07;4.17;;;16.40;99.90;;;;;;6153747;23;20447;-76
2023/02/12 13:34:48;;;;;;;5.50;4.70;;;;;;;;;;6132998;23;20758;-80
2023/02/12 13:45:15;;;;;;;7.83;5.17;;;17.00;99.90;;;;;;6206535;23;20458;-79
2023/02/12 13:47:46;;;;;;;6.20;4.60;;;;;;;;;;6207097;23;20430;-83